Latest Weather Observations for West Wyalong

IDN60801

Issued at 2:03 pm EDT Sunday 29 March 2015 (issued every 30 minutes, with the page automatically refreshed every 10 minutes)

About weather observations | Map of weather stations | Latest weather observations for NSW | Other Formats
Station Details ID: 050017 Name: WEST WYALONG AIRPORT AWS Lat: -33.94 Lon: 147.20 Height: 257.0 m
Data from the previous 72 hours. | See also: Recent months for locations in New South Wales
Date/Time
EDT
Temp
°C
App
Temp
°C
Dew
Point
Rel
Hum
%
Delta-T
°C
Wind Press
QNH
hPa
Press
MSL
hPa
Rain
since 9 am
mm
Dir
 
Spd
km/h
Gust
km/h
Spd
kts
Gust
kts
29/02:00pm 24.7 21.3 3.9 26 10.4 S 11 17 6 9 1023.1 1022.1 0.0
29/01:30pm 23.3 19.9 3.8 28 9.6 SSW 11 17 6 9 1023.4 1022.4 0.0
29/01:00pm 23.4 20.0 3.9 28 9.6 S 11 19 6 10 1023.7 1022.7 0.0
29/12:30pm 22.7 19.5 3.3 28 9.5 WSW 9 20 5 11 1024.1 1023.2 0.0
29/12:00pm 22.2 18.8 3.8 30 9.0 S 11 17 6 9 1024.2 1023.3 0.0
29/11:30am 21.4 18.2 3.1 30 8.8 ESE 9 13 5 7 1024.3 1023.4 0.0
29/11:00am 21.2 18.6 3.4 31 8.6 S 6 11 3 6 1024.5 1023.6 0.0
29/10:30am 21.1 19.3 3.3 31 8.5 SSE 2 9 1 5 1024.5 1023.6 0.0
29/10:00am 19.7 16.9 2.1 31 8.2 SE 6 9 3 5 1024.4 1023.5 0.0
29/09:30am 18.8 16.5 3.0 35 7.4 SSE 4 9 2 5 1024.1 1023.2 0.0
29/09:00am 15.8 13.3 3.9 45 5.5 WSW 6 7 3 4 1023.8 1022.8 0.0
29/08:30am 13.6 12.4 4.5 54 4.2 CALM 0 0 0 0 1023.6 1022.6 0.0
29/08:00am 12.6 11.4 4.8 59 3.6 CALM 0 6 0 3 1023.2 1022.2 0.0
29/07:30am 12.0 10.3 4.0 58 3.6 WSW 2 7 1 4 1023.0 1022.0 0.0
29/07:00am 12.1 10.8 3.9 57 3.7 CALM 0 4 0 2 1022.6 1021.6 0.0
29/06:30am 12.2 9.7 3.7 56 3.9 NNW 6 11 3 6 1022.6 1021.6 0.0
29/06:00am 12.6 11.2 3.8 55 4.0 CALM 0 7 0 4 1022.3 1021.3 0.0
29/05:30am 13.5 11.8 4.1 53 4.3 NNE 2 6 1 3 1021.7 1020.7 0.0
29/05:00am 13.2 12.0 4.6 56 4.0 CALM 0 0 0 0 1021.5 1020.5 0.0
29/04:30am 13.1 11.9 4.5 56 4.0 CALM 0 0 0 0 1021.4 1020.4 0.0
29/04:00am 13.5 12.2 4.1 53 4.3 CALM 0 4 0 2 1021.5 1020.5 0.0
29/03:30am 14.2 12.4 3.7 49 4.8 SW 2 6 1 3 1021.6 1020.6 0.0
29/03:00am 14.4 12.0 4.1 50 4.8 SSW 6 7 3 4 1021.9 1020.9 0.0
29/02:30am 14.3 11.7 4.0 50 4.8 SSW 7 9 4 5 1022.0 1021.0 0.0
29/02:00am 14.2 11.8 4.2 51 4.6 WSW 6 7 3 4 1022.4 1021.4 0.0
29/01:30am 14.0 11.5 3.8 50 4.7 WSW 6 6 3 3 1022.4 1021.4 0.0
29/01:00am 14.1 11.4 3.6 49 4.8 WSW 7 7 4 4 1022.5 1021.5 0.0
29/12:30am 14.1 11.5 3.3 48 4.9 WSW 6 7 3 4 1022.5 1021.5 0.0
29/12:00am 14.0 11.2 3.2 48 4.9 SW 7 9 4 5 1022.4 1021.4 0.0
 
Date/Time
EDT
Temp
°C
App
Temp
°C
Dew
Point
Rel
Hum
%
Delta-T
°C
Wind Press
QNH
hPa
Press
MSL
hPa
Rain
since 9 am
mm
Dir
 
Spd
km/h
Gust
km/h
Spd
kts
Gust
kts
28/11:30pm 14.0 10.8 3.2 48 4.9 WSW 9 9 5 5 1022.5 1021.5 0.0
28/11:00pm 13.7 11.0 2.9 48 4.8 SW 6 7 3 4 1022.5 1021.5 0.0
28/10:30pm 14.0 12.5 3.2 48 4.9 CALM 0 0 0 0 1022.6 1021.6 0.0
28/10:00pm 14.0 11.3 2.9 47 5.0 WSW 6 7 3 4 1022.8 1021.8 0.0
28/09:30pm 14.7 13.1 2.6 44 5.5 CALM 0 2 0 1 1022.9 1021.9 0.0
28/09:00pm 16.0 13.6 2.1 39 6.3 W 4 6 2 3 1022.6 1021.6 0.0
28/08:30pm 17.3 15.3 2.1 36 6.9 WSW 2 6 1 3 1022.4 1021.4 0.0
28/08:00pm 18.7 15.3 2.1 33 7.6 WSW 9 11 5 6 1022.0 1021.0 0.0
28/07:30pm 19.2 15.8 1.7 31 8.0 W 9 11 5 6 1022.0 1021.0 0.0
28/07:00pm 20.8 16.9 1.1 27 9.0 SW 11 13 6 7 1021.5 1020.5 0.0
28/06:30pm 21.9 17.7 1.5 26 9.6 WSW 13 19 7 10 1021.5 1020.5 0.0
28/06:00pm 22.7 18.1 1.7 25 9.9 WSW 15 20 8 11 1021.3 1020.3 0.0
28/05:30pm 23.8 19.9 1.4 23 10.6 WSW 11 20 6 11 1021.2 1020.2 0.0
28/05:00pm 24.0 19.9 2.2 24 10.5 SW 13 22 7 12 1021.4 1020.4 0.0
28/04:30pm 23.8 19.7 2.0 24 10.5 WSW 13 24 7 13 1021.5 1020.5 0.0
28/04:00pm 24.0 19.5 2.2 24 10.5 SW 15 20 8 11 1021.8 1020.8 0.0
28/03:30pm 23.0 18.9 2.5 26 9.9 SW 13 20 7 11 1022.0 1021.0 0.0
28/03:00pm 23.1 18.5 3.6 28 9.5 WSW 17 26 9 14 1022.3 1021.3 0.0
28/02:30pm 23.0 18.5 4.0 29 9.4 SW 17 24 9 13 1022.6 1021.6 0.0
28/02:00pm 22.4 18.9 3.5 29 9.2 WNW 11 19 6 10 1023.0 1022.0 0.0
28/01:30pm 21.6 18.6 4.2 32 8.6 WNW 9 20 5 11 1023.4 1022.4 0.0
28/01:00pm 20.5 17.1 4.1 34 8.0 SSW 11 22 6 12 1023.7 1022.7 0.0
28/12:30pm 20.0 16.2 4.1 35 7.7 SSW 13 22 7 12 1024.1 1023.2 0.0
28/12:00pm 19.5 15.9 4.8 38 7.2 WSW 13 20 7 11 1024.8 1023.9 0.0
28/11:30am 18.6 15.0 4.8 40 6.7 WSW 13 20 7 11 1025.0 1024.1 0.0
28/11:00am 17.9 14.6 4.8 42 6.3 SW 11 26 6 14 1025.2 1024.2 0.0
28/10:30am 16.9 13.7 4.9 45 5.8 SW 11 17 6 9 1025.6 1024.6 0.0
28/10:00am 16.2 13.1 5.5 49 5.2 S 11 19 6 10 1025.5 1024.5 0.0
28/09:30am 14.6 11.4 5.1 53 4.5 SSE 11 17 6 9 1025.2 1024.2 0.0
28/09:00am 13.2 11.0 5.1 58 3.8 SSE 6 9 3 5 1024.7 1023.8 0.0
28/08:30am 11.4 8.6 5.1 65 2.9 SW 9 11 5 6 1024.6 1023.7 0.0
28/08:00am 9.0 6.5 4.8 75 1.9 SW 7 7 4 4 1024.3 1023.4 0.0
28/07:30am 6.8 4.2 3.2 78 1.5 SW 6 6 3 3 1024.1 1023.2 0.0
28/07:00am 8.0 5.5 3.8 75 1.8 SW 6 7 3 4 1024.0 1023.0 0.0
28/06:30am 8.2 5.5 3.5 72 2.0 SW 7 9 4 5 1023.9 1022.9 0.0
28/06:00am 8.4 4.9 3.3 70 2.2 SW 11 13 6 7 1023.7 1022.7 0.0
28/05:30am 9.2 5.7 3.6 68 2.5 WSW 11 13 6 7 1023.5 1022.5 0.0
28/05:00am 9.0 6.0 4.2 72 2.1 WSW 9 11 5 6 1023.2 1022.2 0.0
28/04:30am 7.1 3.9 3.2 76 1.7 SW 9 9 5 5 1023.0 1022.0 0.0
28/04:00am 6.8 4.1 2.9 76 1.6 WSW 6 7 3 4 1023.1 1022.1 0.0
28/03:30am 7.2 4.3 2.5 72 2.0 WSW 7 9 4 5 1023.1 1022.1 0.0
28/03:00am 7.7 4.8 2.8 71 2.1 WSW 7 9 4 5 1023.3 1022.3 0.0
28/02:30am 8.5 5.7 2.9 68 2.4 W 7 7 4 4 1023.7 1022.7 0.0
28/02:00am 9.6 7.0 3.4 65 2.7 WSW 6 7 3 4 1023.7 1022.7 0.0
28/01:30am 8.6 7.1 3.0 68 2.4 CALM 0 2 0 1 1023.8 1022.8 0.0
28/01:00am 10.4 8.6 3.4 62 3.1 WSW 2 6 1 3 1023.9 1022.9 0.0
28/12:30am 11.6 8.9 3.9 59 3.5 WSW 7 9 4 5 1024.1 1023.2 0.0
28/12:00am 12.1 9.5 4.1 58 3.6 WSW 7 9 4 5 1024.1 1023.2 0.0
 
Date/Time
EDT
Temp
°C
App
Temp
°C
Dew
Point
Rel
Hum
%
Delta-T
°C
Wind Press
QNH
hPa
Press
MSL
hPa
Rain
since 9 am
mm
Dir
 
Spd
km/h
Gust
km/h
Spd
kts
Gust
kts
27/11:30pm 12.9 9.9 4.1 55 4.0 WSW 9 11 5 6 1024.0 1023.0 0.0
27/11:00pm 13.2 10.2 4.1 54 4.2 WSW 9 11 5 6 1024.0 1023.0 0.0
27/10:30pm 13.5 10.5 4.1 53 4.3 SW 9 11 5 6 1023.9 1022.9 0.0
27/10:00pm 14.3 11.3 4.3 51 4.6 WSW 9 11 5 6 1023.7 1022.7 0.0
27/09:30pm 15.0 12.0 4.1 48 5.1 WSW 9 11 5 6 1023.7 1022.7 0.0
27/09:00pm 16.0 12.6 3.8 44 5.7 SW 11 15 6 8 1023.4 1022.4 0.0
27/08:30pm 16.9 13.1 3.9 42 6.1 SW 13 15 7 8 1023.0 1022.0 0.0
27/08:00pm 17.3 13.4 3.2 39 6.6 SW 13 15 7 8 1022.6 1021.6 0.0
27/07:30pm 18.2 13.9 3.3 37 7.0 SW 15 20 8 11 1022.3 1021.3 0.0
27/07:00pm 19.3 14.6 3.1 34 7.6 SW 17 20 9 11 1022.1 1021.1 0.0
27/06:30pm 20.4 14.4 3.2 32 8.2 SW 24 32 13 17 1021.9 1020.9 0.0
27/06:00pm 20.9 14.6 3.6 32 8.3 SW 26 35 14 19 1021.7 1020.7 0.0
27/05:30pm 21.4 15.8 3.6 31 8.6 SW 22 30 12 16 1021.6 1020.6 0.0
27/05:00pm 21.4 15.5 4.0 32 8.5 SW 24 37 13 20 1021.6 1020.6 0.0
27/04:30pm 22.0 16.7 5.0 33 8.5 SW 22 35 12 19 1021.8 1020.8 0.0
27/04:00pm 21.5 16.5 4.6 33 8.3 SW 20 33 11 18 1021.9 1020.9 0.0
27/03:30pm 21.3 15.6 4.8 34 8.2 WSW 24 35 13 19 1022.1 1021.1 0.0
27/03:00pm 21.1 15.4 5.1 35 8.0 SW 24 35 13 19 1022.5 1021.5 0.0
27/02:30pm 20.6 14.5 4.6 35 7.9 WSW 26 39 14 21 1022.9 1021.9 0.0
27/02:00pm 20.0 15.1 4.9 37 7.4 SW 20 35 11 19 1023.3 1022.3 0.0
27/01:30pm 19.5 14.2 5.2 39 7.1 SW 22 33 12 18 1023.7 1022.7 0.0
27/01:00pm 18.9 13.2 4.7 39 6.9 SW 24 35 13 19 1024.3 1023.4 0.0
27/12:30pm 18.7 14.0 5.9 43 6.4 SW 20 32 11 17 1024.7 1023.8 0.0
27/12:00pm 17.5 12.4 5.8 46 5.7 SW 22 30 12 16 1025.2 1024.2 0.0
27/11:30am 16.4 12.3 6.0 50 5.1 SW 17 24 9 13 1025.5 1024.5 0.0
27/11:00am 15.5 10.9 5.7 52 4.7 SW 19 28 10 15 1025.6 1024.6 0.0
27/10:30am 14.7 10.5 5.8 55 4.3 SW 17 20 9 11 1025.7 1024.7 0.0
27/10:00am 13.5 9.2 5.4 58 3.8 WSW 17 22 9 12 1025.6 1024.6 0.0
27/09:30am 12.7 7.8 5.1 60 3.6 SW 20 28 11 15 1025.6 1024.6 0.0
27/09:00am 11.7 6.3 4.4 61 3.3 SW 22 30 12 16 1025.4 1024.4 0.0
27/08:30am 10.7 6.0 3.3 60 3.3 WSW 17 22 9 12 1025.3 1024.3 0.0
27/08:00am 9.5 5.5 2.8 63 2.9 WSW 13 19 7 10 1024.9 1024.0 0.0
27/07:30am 8.9 4.4 2.3 63 2.8 WSW 15 20 8 11 1024.5 1023.6 0.0
27/07:00am 9.0 4.1 2.1 62 2.9 WSW 17 22 9 12 1024.2 1023.3 0.0
27/06:30am 8.7 4.5 1.4 60 3.0 WSW 13 17 7 9 1023.9 1022.9 0.0
27/06:00am 7.2 3.6 0.9 64 2.5 SW 9 11 5 6 1023.7 1022.7 0.0
27/05:30am 7.8 4.2 0.8 61 2.8 WSW 9 13 5 7 1023.4 1022.4 0.0
27/05:00am 8.6 4.6 0.3 56 3.3 SW 11 13 6 7 1023.3 1022.3 0.0
27/04:30am 10.2 5.5 0.8 52 3.9 WSW 15 19 8 10 1023.2 1022.2 0.0
27/04:00am 10.4 6.1 0.7 51 4.0 WSW 13 17 7 9 1023.4 1022.4 0.0
27/03:30am 10.6 6.2 0.1 48 4.3 WSW 13 15 7 8 1023.5 1022.5 0.0
27/03:00am 11.2 6.0 0.3 47 4.5 WSW 17 20 9 11 1023.8 1022.8 0.0
27/02:30am 10.1 5.3 0.4 51 4.0 W 15 17 8 9 1024.0 1023.0 0.0
27/02:00am 8.7 5.4 0.2 55 3.4 W 7 9 4 5 1024.0 1023.0 0.0
27/01:30am 9.3 5.7 0.5 54 3.6 NNW 9 11 5 6 1024.0 1023.0 0.0
27/01:00am 8.5 5.5 0.5 57 3.2 W 6 7 3 4 1023.9 1022.9 0.0
27/12:30am 9.8 6.5 0.4 52 3.9 W 7 11 4 6 1024.0 1023.0 0.0
27/12:00am 11.1 7.3 -0.4 45 4.7 W 9 11 5 6 1024.0 1023.0 0.0
 
Date/Time
EDT
Temp
°C
App
Temp
°C
Dew
Point
Rel
Hum
%
Delta-T
°C
Wind Press
QNH
hPa
Press
MSL
hPa
Rain
since 9 am
mm
Dir
 
Spd
km/h
Gust
km/h
Spd
kts
Gust
kts
26/11:30pm 11.8 7.7 -0.4 43 5.0 W 11 13 6 7 1024.1 1023.2 0.0
26/11:00pm 11.6 7.8 -0.5 43 4.9 W 9 11 5 6 1024.3 1023.4 0.0
26/10:30pm 12.6 8.4 -0.6 40 5.5 W 11 13 6 7 1024.3 1023.4 0.0
26/10:00pm 13.7 9.5 -1.1 36 6.1 WSW 11 15 6 8 1024.1 1023.2 0.0
26/09:30pm 14.4 9.8 -0.8 35 6.4 WSW 13 17 7 9 1023.9 1022.9 0.0
26/09:00pm 15.1 9.7 -1.0 33 6.7 WSW 17 22 9 12 1023.5 1022.5 0.0
26/08:30pm 15.5 10.1 -1.5 31 7.1 WSW 17 22 9 12 1023.4 1022.4 0.0
26/08:00pm 16.0 10.1 -2.0 29 7.4 WSW 19 24 10 13 1022.9 1021.9 0.0
26/07:30pm 16.7 10.5 -2.9 26 8.0 WSW 20 28 11 15 1022.5 1021.5 0.0
26/07:00pm 17.6 11.5 -2.1 26 8.2 WSW 20 30 11 16 1022.2 1021.2 0.0
26/06:30pm 18.6 11.9 -1.3 26 8.6 WSW 24 33 13 18 1021.7 1020.7 0.0
26/06:00pm 19.0 11.8 -2.0 24 8.9 WSW 26 37 14 20 1021.4 1020.4 0.0
26/05:30pm 19.3 12.7 -0.7 26 8.8 WSW 24 37 13 20 1021.2 1020.2 0.0
26/05:00pm 19.9 12.9 -0.7 25 9.1 SW 26 35 14 19 1021.3 1020.3 0.0
26/04:30pm 20.0 12.7 -0.1 26 9.0 WSW 28 39 15 21 1021.2 1020.2 0.0
26/04:07pm 20.0 12.6 -0.6 25 9.1 WSW 28 46 15 25 1021.3 1020.3 0.0
26/04:00pm 20.0 13.4 -0.6 25 9.1 WSW 24 37 13 20 1021.2 1020.2 0.0
26/03:42pm 20.0 12.6 -0.6 25 9.1 WSW 28 48 15 26 1021.3 1020.3 0.0
26/03:30pm 20.1 12.3 -0.5 25 9.1 WSW 30 46 16 25 1021.4 1020.4 0.0
26/03:11pm 20.3 13.4 0.2 26 9.1 WSW 26 54 14 29 1021.3 1020.3 0.0
26/03:00pm 19.7 12.0 -0.3 26 8.8 W 30 41 16 22 1021.4 1020.4 0.0
26/02:30pm 19.6 11.4 0.6 28 8.6 WSW 33 43 18 23 1021.4 1020.4 0.0

Other Formats:

Comma delimited format used in spreadsheet applications
http://www.bom.gov.au/fwo/IDN60801/IDN60801.95709.axf

JavaScript Object Notation format (JSON) in row-major order
http://www.bom.gov.au/fwo/IDN60801/IDN60801.95709.json